createdAt,value
2018-11-02T00:02:52.032Z,32.53
2018-11-02T00:05:56.053Z,31.53
2018-11-02T00:08:59.924Z,27.60
2018-11-02T00:12:03.901Z,29.90
2018-11-02T00:15:08.441Z,28.40
2018-11-02T00:18:12.483Z,28.60
2018-11-02T00:21:16.618Z,26.53
2018-11-02T00:24:20.608Z,30.97
2018-11-02T00:27:24.552Z,28.63
2018-11-02T00:30:28.462Z,26.93
2018-11-02T00:33:32.407Z,30.03
2018-11-02T00:36:36.415Z,26.57
2018-11-02T00:39:40.362Z,33.77
2018-11-02T00:42:44.457Z,31.13
2018-11-02T00:45:48.423Z,29.60
2018-11-02T00:48:52.656Z,31.43
2018-11-02T00:51:56.604Z,29.20
2018-11-02T00:55:00.665Z,28.27
2018-11-02T00:58:05.318Z,27.37
2018-11-02T01:07:11.121Z,30.20
2018-11-02T01:10:15.152Z,33.27
2018-11-02T01:13:19.236Z,32.20
2018-11-02T01:16:23.365Z,32.80
2018-11-02T01:19:31.586Z,33.93
2018-11-02T01:22:35.904Z,31.83
2018-11-02T01:25:40.086Z,31.33
2018-11-02T01:28:44.238Z,30.30
2018-11-02T01:31:48.251Z,27.63
2018-11-02T01:34:52.374Z,29.90
2018-11-02T01:37:56.799Z,29.87
2018-11-02T01:41:00.938Z,30.73
2018-11-02T01:44:05.052Z,26.33
2018-11-02T01:47:09.292Z,28.60
2018-11-02T01:50:13.335Z,26.83
2018-11-02T01:53:17.664Z,25.00
2018-11-02T01:56:21.844Z,29.67
2018-11-02T01:59:25.931Z,27.27
2018-11-02T02:02:30.072Z,27.77
2018-11-02T02:05:34.216Z,25.57
2018-11-02T02:08:38.718Z,28.53
2018-11-02T02:11:42.946Z,28.30
2018-11-02T02:14:47.339Z,25.27
2018-11-02T02:17:51.553Z,25.77
2018-11-02T02:20:55.713Z,28.17
2018-11-02T02:23:59.820Z,27.70
2018-11-02T02:27:03.881Z,27.13
2018-11-02T02:30:11.216Z,24.10
2018-11-02T02:33:15.407Z,27.50
2018-11-02T02:36:19.644Z,26.87
2018-11-02T02:39:23.860Z,26.83
2018-11-02T02:42:28.290Z,26.97
2018-11-02T02:45:32.562Z,25.73
2018-11-02T02:48:36.687Z,23.40
2018-11-02T02:51:40.698Z,26.67
2018-11-02T02:54:44.703Z,26.20
2018-11-02T02:57:48.773Z,26.33
2018-11-02T03:00:52.888Z,24.63
2018-11-02T03:03:57.110Z,27.93
2018-11-02T03:07:01.287Z,26.90
2018-11-02T03:10:05.653Z,24.13
2018-11-02T03:13:09.630Z,26.47
2018-11-02T03:16:13.853Z,28.13
2018-11-02T03:19:18.066Z,24.00
2018-11-02T03:22:22.333Z,24.37
2018-11-02T03:25:26.445Z,26.10
2018-11-02T03:28:30.564Z,24.97
2018-11-02T03:31:34.540Z,28.77
2018-11-02T03:34:38.840Z,26.20
2018-11-02T03:37:42.883Z,22.73
2018-11-02T03:40:46.957Z,25.93
2018-11-02T03:43:50.957Z,26.00
2018-11-02T03:46:55.090Z,23.80
2018-11-02T03:49:59.393Z,23.87
2018-11-02T03:53:03.427Z,23.77
2018-11-02T03:56:07.782Z,30.00
2018-11-02T03:59:12.447Z,22.50
2018-11-02T04:02:16.476Z,25.10
2018-11-02T04:05:20.502Z,22.23
2018-11-02T04:08:24.504Z,22.27
2018-11-02T04:11:28.429Z,20.40
2018-11-02T04:14:32.477Z,22.70
2018-11-02T04:17:36.756Z,23.10
2018-11-02T04:20:40.803Z,24.40
2018-11-02T04:23:44.943Z,22.63
2018-11-02T04:26:48.880Z,22.80
2018-11-02T04:29:52.906Z,22.77
2018-11-02T04:32:56.805Z,22.43
2018-11-02T04:36:00.762Z,21.17
2018-11-02T04:39:07.448Z,23.70
2018-11-02T04:42:11.327Z,24.00
2018-11-02T04:45:15.227Z,21.87
2018-11-02T04:48:19.184Z,23.50
2018-11-02T04:51:23.068Z,20.70
2018-11-02T04:54:26.978Z,22.47
2018-11-02T04:57:30.980Z,22.23
2018-11-02T05:00:34.938Z,21.43
2018-11-02T05:03:38.803Z,20.77
2018-11-02T05:06:42.763Z,22.73
2018-11-02T05:09:46.946Z,21.77
2018-11-02T05:12:50.768Z,21.63
2018-11-02T05:15:54.721Z,18.17
2018-11-02T05:18:58.643Z,24.10
2018-11-02T05:22:02.461Z,19.87
2018-11-02T05:25:07.858Z,18.63
2018-11-02T05:28:11.743Z,18.13
2018-11-02T05:31:15.598Z,18.20
2018-11-02T05:34:19.616Z,18.60
2018-11-02T05:37:23.678Z,19.13
2018-11-02T05:40:27.551Z,19.00
2018-11-02T05:43:31.509Z,18.87
2018-11-02T05:46:35.613Z,17.97
2018-11-02T05:49:39.654Z,18.37
2018-11-02T05:52:43.553Z,23.30
2018-11-02T05:55:47.595Z,18.83
2018-11-02T05:58:51.751Z,17.90
2018-11-02T06:01:55.699Z,18.77
2018-11-02T06:04:59.652Z,16.80
2018-11-02T06:08:03.699Z,20.70
2018-11-02T06:11:08.322Z,17.57
2018-11-02T06:14:12.317Z,17.70
2018-11-02T06:17:16.213Z,17.90
2018-11-02T06:20:20.112Z,18.70
2018-11-02T06:23:24.065Z,17.97
2018-11-02T06:26:27.976Z,20.00
2018-11-02T06:29:31.828Z,18.67
2018-11-02T06:32:35.787Z,16.73
2018-11-02T06:35:39.720Z,19.40
2018-11-02T06:38:43.679Z,17.30
2018-11-02T06:41:47.459Z,19.07
2018-11-02T06:44:51.387Z,21.57
2018-11-02T06:47:55.283Z,18.60
2018-11-02T06:50:59.359Z,16.60
2018-11-02T06:54:03.309Z,15.03
2018-11-02T06:57:07.880Z,16.93
2018-11-02T07:00:13.681Z,15.50
2018-11-02T07:03:17.665Z,17.37
2018-11-02T07:06:21.702Z,16.13
2018-11-02T07:09:25.633Z,13.80
2018-11-02T07:12:29.749Z,15.27
2018-11-02T07:15:33.845Z,16.37
2018-11-02T07:18:37.952Z,15.73
2018-11-02T07:21:41.953Z,19.37
2018-11-02T07:24:46.025Z,17.47
2018-11-02T07:27:50.096Z,18.97
2018-11-02T07:30:54.319Z,17.63
2018-11-02T07:33:58.275Z,16.47
2018-11-02T07:37:02.254Z,14.63
2018-11-02T07:40:07.959Z,16.30
2018-11-02T07:43:11.813Z,16.87
2018-11-02T07:46:15.926Z,16.57
2018-11-02T07:49:20.166Z,17.23
2018-11-02T07:52:24.153Z,15.60
2018-11-02T07:55:28.084Z,14.70
2018-11-02T07:58:31.919Z,13.87
2018-11-02T08:01:35.874Z,15.30
2018-11-02T08:04:39.820Z,16.30
2018-11-02T08:07:43.872Z,14.37
2018-11-02T08:10:47.763Z,17.73
2018-11-02T08:13:51.701Z,15.73
2018-11-02T08:16:55.583Z,14.57
2018-11-02T08:19:59.465Z,15.53
2018-11-02T08:23:03.308Z,15.50
2018-11-02T09:00:30.965Z,12.97
2018-11-02T09:03:34.845Z,14.93
2018-11-02T09:06:38.832Z,12.77
2018-11-02T09:09:42.676Z,12.37
2018-11-02T09:12:46.645Z,12.17
2018-11-02T09:15:50.631Z,14.27
2018-11-02T09:18:54.544Z,10.77
2018-11-02T09:21:58.537Z,12.10
2018-11-02T09:25:02.437Z,14.03
2018-11-02T09:28:06.671Z,9.53
2018-11-02T09:31:10.598Z,8.60
2018-11-02T09:34:14.563Z,9.50
2018-11-02T09:37:18.579Z,7.97
2018-11-02T09:40:22.489Z,9.33
2018-11-02T09:43:26.292Z,8.47
2018-11-02T09:46:30.272Z,7.50
2018-11-02T09:49:34.089Z,7.80
2018-11-02T09:52:38.782Z,8.77
2018-11-02T09:55:42.605Z,8.23
2018-11-02T09:58:46.612Z,6.83
2018-11-02T10:01:50.588Z,7.53
2018-11-02T10:04:54.510Z,8.50
2018-11-02T10:07:58.512Z,8.40
2018-11-02T10:11:02.542Z,8.87
2018-11-02T10:14:06.558Z,9.30
2018-11-02T10:17:10.474Z,6.83
2018-11-02T10:20:14.565Z,6.60
2018-11-02T10:23:18.508Z,11.37
2018-11-02T10:26:22.499Z,6.73
2018-11-02T10:29:26.352Z,5.53
2018-11-02T10:32:30.277Z,6.03
2018-11-02T10:35:34.188Z,7.37
2018-11-02T10:38:37.963Z,8.43
2018-11-02T10:41:44.130Z,6.23
2018-11-02T10:44:48.125Z,7.47
2018-11-02T10:47:52.217Z,7.50
2018-11-02T10:50:56.183Z,8.47
2018-11-02T10:54:00.086Z,7.43
2018-11-02T10:57:04.134Z,7.87
2018-11-02T11:00:15.484Z,9.90
2018-11-02T11:03:19.329Z,6.90
2018-11-02T11:06:23.245Z,8.00
2018-11-02T11:09:27.125Z,5.50
2018-11-02T11:12:30.962Z,8.97
2018-11-02T11:15:34.878Z,7.40
2018-11-02T11:18:38.767Z,6.53
2018-11-02T11:21:43.222Z,7.20
2018-11-02T11:24:47.044Z,10.03
2018-11-02T11:27:50.846Z,9.10
2018-11-02T11:30:54.708Z,7.13
2018-11-02T11:33:58.538Z,6.43
2018-11-02T11:37:02.338Z,8.30
2018-11-02T11:40:08.784Z,7.07
2018-11-02T11:43:12.699Z,6.73
2018-11-02T11:46:16.638Z,5.90
2018-11-02T11:49:20.667Z,7.03
2018-11-02T11:52:24.582Z,8.87
2018-11-02T11:55:28.476Z,6.17
2018-11-02T11:58:32.402Z,6.53
2018-11-02T12:01:36.162Z,7.90
2018-11-02T12:04:40.084Z,5.90
2018-11-02T12:07:43.935Z,5.87
2018-11-02T12:10:47.825Z,5.43
2018-11-02T12:13:51.750Z,5.67
2018-11-02T12:16:55.619Z,5.80
2018-11-02T12:19:59.488Z,6.17
2018-11-02T12:23:04.206Z,8.77
2018-11-02T12:26:08.208Z,6.37
2018-11-02T12:29:12.084Z,6.00
2018-11-02T12:32:16.082Z,8.73
2018-11-02T12:35:20.732Z,9.60
2018-11-02T12:38:24.671Z,6.07
2018-11-02T12:41:28.834Z,5.13
2018-11-02T12:44:32.645Z,4.17
2018-11-02T12:47:37.160Z,4.60
2018-11-02T12:50:41.041Z,4.70
2018-11-02T12:53:44.779Z,4.30
2018-11-02T12:56:48.619Z,4.10
2018-11-02T12:59:52.558Z,6.70
2018-11-02T13:02:56.715Z,3.83
2018-11-02T13:06:00.556Z,3.40
2018-11-02T13:09:06.100Z,2.60
2018-11-02T13:12:09.990Z,3.23
2018-11-02T13:15:15.062Z,4.60
2018-11-02T13:18:21.189Z,4.23
2018-11-02T13:21:25.031Z,3.60
2018-11-02T13:24:28.958Z,3.40
2018-11-02T13:27:33.068Z,2.70
2018-11-02T13:30:37.153Z,3.30
2018-11-02T13:33:40.959Z,3.07
2018-11-02T13:36:45.187Z,4.60
2018-11-02T13:39:48.928Z,3.60
2018-11-02T13:42:52.853Z,2.60
2018-11-02T13:45:56.819Z,2.83
2018-11-02T13:49:00.706Z,4.17
2018-11-02T13:52:04.647Z,2.97
2018-11-02T13:55:09.092Z,3.33
2018-11-02T13:58:13.024Z,2.90
2018-11-02T14:01:16.896Z,2.63
2018-11-02T14:04:20.822Z,2.33
2018-11-02T14:07:24.668Z,2.60
2018-11-02T14:10:28.532Z,3.13
2018-11-02T14:13:32.558Z,5.27
2018-11-02T14:16:36.809Z,4.20
2018-11-02T14:19:40.639Z,3.80
2018-11-02T14:22:44.519Z,3.17
2018-11-02T14:25:48.372Z,2.60
2018-11-02T14:28:52.223Z,4.40
2018-11-02T14:31:56.127Z,3.33
2018-11-02T14:35:00.018Z,2.87
2018-11-02T14:38:03.951Z,2.87
2018-11-02T14:41:07.876Z,4.93
2018-11-02T14:44:11.809Z,5.00
2018-11-02T14:47:15.796Z,4.17
2018-11-02T14:50:19.765Z,4.20
2018-11-02T14:53:23.700Z,3.10
2018-11-02T14:56:27.630Z,2.60
2018-11-02T14:59:31.738Z,3.53
2018-11-02T15:02:35.612Z,4.40
2018-11-02T15:05:39.702Z,3.50
2018-11-02T15:08:43.672Z,3.30
2018-11-02T15:11:47.653Z,4.50
2018-11-02T15:14:51.575Z,3.27
2018-11-02T15:17:55.538Z,3.33
2018-11-02T15:20:59.513Z,4.47
2018-11-02T15:24:03.442Z,4.60
2018-11-02T15:27:07.578Z,4.87
2018-11-02T15:30:13.873Z,3.47
2018-11-02T15:33:17.798Z,4.77
2018-11-02T15:36:21.821Z,3.70
2018-11-02T15:39:25.892Z,4.10
2018-11-02T15:42:29.845Z,3.63
2018-11-02T15:45:33.841Z,3.20
2018-11-02T15:48:37.789Z,3.40
2018-11-02T15:51:41.700Z,4.20
2018-11-02T15:54:45.568Z,5.80
2018-11-02T15:57:49.477Z,2.70
2018-11-02T16:00:53.486Z,3.13
2018-11-02T16:03:57.425Z,5.27
2018-11-02T16:07:01.360Z,4.07
2018-11-02T16:10:07.039Z,3.37
2018-11-02T16:13:10.880Z,4.23
2018-11-02T16:16:14.833Z,6.27
2018-11-02T16:19:18.820Z,3.20
2018-11-02T16:22:22.823Z,3.83
2018-11-02T16:25:26.855Z,3.47
2018-11-02T16:28:30.854Z,3.23
2018-11-02T16:31:34.869Z,4.10
2018-11-02T16:34:38.752Z,4.13
2018-11-02T16:37:42.696Z,2.97
2018-11-02T16:40:46.603Z,5.23
2018-11-02T16:43:50.656Z,3.27
2018-11-02T16:46:54.461Z,4.73
2018-11-02T16:49:58.425Z,3.43
2018-11-02T16:53:02.322Z,5.47
2018-11-02T16:56:06.267Z,4.10
2018-11-02T16:59:10.215Z,3.67
2018-11-02T17:02:14.208Z,7.20
2018-11-02T17:05:18.795Z,5.07
2018-11-02T17:08:23.362Z,4.03
2018-11-02T17:11:27.373Z,3.77
2018-11-02T17:14:31.262Z,4.07
2018-11-02T17:17:35.550Z,4.17
2018-11-02T17:20:39.458Z,2.57
2018-11-02T17:23:43.549Z,3.60
2018-11-02T17:26:47.602Z,6.53
2018-11-02T17:29:51.584Z,4.17
2018-11-02T17:32:55.518Z,2.97
2018-11-02T17:35:59.435Z,4.00
2018-11-02T17:39:04.148Z,20.47
2018-11-02T17:42:08.142Z,5.27
2018-11-02T17:45:12.168Z,3.90
2018-11-02T17:48:16.116Z,4.70
2018-11-02T17:51:20.103Z,4.87
2018-11-02T17:54:24.103Z,5.10
2018-11-02T17:57:28.025Z,5.67
2018-11-02T18:00:32.134Z,3.70
2018-11-02T18:03:36.129Z,4.40
2018-11-02T18:06:40.271Z,6.70
2018-11-02T18:09:44.496Z,5.40
2018-11-02T18:12:48.445Z,5.70
2018-11-02T18:15:52.447Z,6.17
2018-11-02T18:18:56.500Z,7.00
2018-11-02T18:22:00.515Z,6.13
2018-11-02T18:25:04.270Z,5.60
2018-11-02T18:28:08.241Z,6.87
2018-11-02T18:31:12.141Z,6.83
2018-11-02T18:34:16.925Z,6.73
2018-11-02T18:37:20.855Z,6.00
2018-11-02T18:40:24.819Z,10.37
2018-11-02T18:43:28.878Z,8.70
2018-11-02T18:46:32.895Z,7.40
2018-11-02T18:49:36.960Z,5.47
2018-11-02T18:52:41.081Z,6.23
2018-11-02T18:55:45.051Z,5.67
2018-11-02T18:58:49.089Z,8.13
2018-11-02T19:01:53.086Z,8.97
2018-11-02T19:04:57.116Z,10.13
2018-11-02T19:08:01.045Z,9.13
2018-11-02T19:11:05.024Z,8.93
2018-11-02T19:14:09.011Z,7.70
2018-11-02T19:17:12.843Z,7.30
2018-11-02T19:20:17.354Z,8.37
2018-11-02T19:23:21.084Z,7.87
2018-11-02T19:26:24.904Z,6.83
2018-11-02T19:29:28.815Z,9.47
2018-11-02T19:32:32.841Z,4.77
2018-11-02T19:35:36.848Z,5.70
2018-11-02T19:39:12.897Z,8.27
2018-11-02T19:42:18.147Z,4.77
2018-11-02T19:45:22.035Z,5.13
2018-11-02T19:48:25.898Z,2.57
2018-11-02T19:51:31.190Z,5.77
2018-11-02T19:54:35.106Z,5.60
2018-11-02T19:57:39.223Z,9.27
2018-11-02T20:00:43.200Z,13.97
2018-11-02T20:03:47.059Z,8.87
2018-11-02T20:06:51.102Z,10.13
2018-11-02T20:09:55.387Z,10.83
2018-11-02T20:12:59.350Z,9.37
2018-11-02T20:16:03.215Z,9.70
2018-11-02T20:19:07.309Z,7.47
2018-11-02T20:22:11.181Z,9.67
2018-11-02T20:25:16.435Z,8.33
2018-11-02T20:28:20.367Z,10.50
2018-11-02T20:31:24.364Z,8.33
2018-11-02T20:34:28.322Z,11.03
2018-11-02T20:37:32.342Z,11.67
2018-11-02T20:40:36.267Z,12.93
2018-11-02T20:43:40.457Z,8.40
2018-11-02T20:46:44.359Z,6.90
2018-11-02T20:49:48.364Z,5.70
2018-11-02T20:52:53.043Z,7.23
2018-11-02T20:55:57.049Z,5.30
2018-11-02T20:59:00.986Z,6.00
2018-11-02T21:02:05.050Z,5.50
2018-11-02T21:05:11.324Z,6.67
2018-11-02T21:08:15.319Z,7.90
2018-11-02T21:11:19.185Z,11.80
2018-11-02T21:14:23.225Z,8.70
2018-11-02T21:17:26.957Z,12.23
2018-11-02T21:20:30.962Z,11.47
2018-11-02T21:23:34.908Z,8.90
2018-11-02T21:26:38.874Z,5.70
2018-11-02T21:29:42.857Z,5.83
2018-11-02T21:32:47.589Z,10.10
2018-11-02T21:35:51.583Z,7.50
2018-11-02T21:38:55.743Z,5.80
2018-11-02T21:42:00.074Z,6.40
2018-11-02T21:45:04.558Z,9.57
2018-11-02T21:48:08.556Z,6.37
2018-11-02T21:51:12.427Z,20.53
2018-11-02T21:54:16.328Z,8.27
2018-11-02T21:57:20.162Z,9.17
2018-11-02T22:00:24.149Z,10.63
2018-11-02T22:03:28.148Z,10.33
2018-11-02T22:06:32.172Z,10.00
2018-11-02T22:09:36.162Z,11.53
2018-11-02T22:12:40.113Z,9.73
2018-11-02T22:15:43.995Z,7.60
2018-11-02T22:18:47.996Z,10.30
2018-11-02T22:21:51.847Z,8.93
2018-11-02T22:24:55.843Z,10.27
2018-11-02T22:27:59.707Z,6.73
2018-11-02T22:31:03.696Z,9.20
2018-11-02T22:34:07.667Z,6.63
2018-11-02T22:37:11.726Z,3.90
2018-11-02T22:40:16.033Z,6.47
2018-11-02T22:43:19.998Z,7.57
2018-11-02T22:46:23.871Z,9.90
2018-11-02T22:49:27.680Z,5.53
2018-11-02T22:52:31.594Z,6.20
2018-11-02T22:55:35.518Z,4.20
2018-11-02T22:58:39.529Z,6.33
2018-11-02T23:01:43.429Z,5.50
2018-11-02T23:04:47.336Z,7.20
2018-11-02T23:07:51.226Z,3.93
2018-11-02T23:10:55.265Z,6.00
2018-11-02T23:13:59.167Z,5.80
2018-11-02T23:17:03.061Z,8.80
2018-11-02T23:20:09.975Z,7.83
2018-11-02T23:23:13.803Z,8.17
2018-11-02T23:26:17.702Z,5.00
2018-11-02T23:29:21.680Z,7.93
2018-11-02T23:32:25.615Z,8.03
2018-11-02T23:35:29.630Z,9.27
2018-11-02T23:38:33.618Z,7.43
2018-11-02T23:41:37.687Z,7.40
2018-11-02T23:44:41.661Z,9.93
2018-11-02T23:47:49.607Z,9.67
2018-11-02T23:50:53.528Z,8.67
2018-11-02T23:53:57.456Z,8.67
2018-11-02T23:57:01.541Z,5.10
